Time;durP1;ratioP1;P1;durP2;ratioP2;P2;SDS_P1;SDS_P2;PMS_P1;PMS_P2;Temp;Humidity;BMP_temperature;BMP_pressure;BME280_temperature;BME280_humidity;BME280_pressure;Samples;Min_cycle;Max_cycle;Signal;HPM_P1;HPM_P2
2021/06/08 00:00:55;;;;;;;;;;;;;;;20.34;71.16;100959.28;5041468;28;19913;-79
2021/06/08 00:03:39;;;;;;;;;;;;;;;20.29;72.22;100964.31;5020618;28;19912;-79
2021/06/08 00:06:23;;;;;;;;;;;;;;;20.19;72.40;100970.50;5027529;28;19913;-78
2021/06/08 00:09:08;;;;;;;;;;;;;;;19.99;73.54;100967.88;5028214;28;19913;-77
2021/06/08 00:11:53;;;;;;;;;;;;;;;20.11;72.36;100977.09;5036345;28;20300;-80
2021/06/08 00:14:38;;;;;;;;;;;;;;;20.23;72.19;100977.66;5024739;28;19909;-81
2021/06/08 00:17:22;;;;;;;;;;;;;;;20.33;71.57;100971.50;5043549;28;19917;-81
2021/06/08 00:20:07;;;;;;;;;;;;;;;20.13;73.01;100972.78;5041114;28;19913;-79
2021/06/08 00:22:52;;;;;;;;;;;;;;;20.08;73.26;100976.66;5030432;28;19913;-80
2021/06/08 00:25:38;;;;;;;;;;;;;;;20.20;72.84;100974.84;5041188;28;19913;-79
2021/06/08 00:28:24;;;;;;;;;;;;;;;20.26;72.34;100978.88;5035166;28;19918;-79
2021/06/08 00:31:08;;;;;;;;;;;;;;;20.18;73.07;100975.22;5029581;28;19913;-79
2021/06/08 00:33:53;;;;;;;;;;;;;;;20.16;73.42;100972.06;5053961;28;20405;-80
2021/06/08 00:36:38;;;;;;;;;;;;;;;20.05;73.71;100969.13;5033857;28;19913;-81
2021/06/08 00:39:23;;;;;;;;;;;;;;;20.24;72.84;100970.16;5024678;28;19913;-81
2021/06/08 00:42:08;;;;;;;;;;;;;;;20.10;73.93;100962.50;5030474;28;19912;-80
2021/06/08 00:44:52;;;;;;;;;;;;;;;20.08;73.96;100962.06;5042491;28;20517;-81
2021/06/08 00:47:38;;;;;;;;;;;;;;;19.98;74.92;100963.50;5038717;28;19913;-81
2021/06/08 00:50:22;;;;;;;;;;;;;;;19.85;75.42;100966.88;5035867;28;19913;-82
2021/06/08 00:53:06;;;;;;;;;;;;;;;20.00;74.24;100963.13;5044719;28;20473;-81
2021/06/08 00:55:51;;;;;;;;;;;;;;;20.00;74.15;100968.66;5056916;28;20381;-80
2021/06/08 00:58:35;;;;;;;;;;;;;;;20.09;73.14;100960.91;5036429;28;19912;-82
2021/06/08 01:01:20;;;;;;;;;;;;;;;20.16;72.36;100965.72;5050235;28;19913;-80
2021/06/08 01:04:05;;;;;;;;;;;;;;;20.03;72.85;100959.63;5037850;28;19916;-82
2021/06/08 01:06:49;;;;;;;;;;;;;;;20.03;72.72;100963.19;5030633;28;19917;-83
2021/06/08 01:09:34;;;;;;;;;;;;;;;20.08;71.88;100959.31;5042592;28;19917;-83
2021/06/08 01:12:18;;;;;;;;;;;;;;;20.09;71.67;100960.91;5025584;28;19917;-85
2021/06/08 01:15:04;;;;;;;;;;;;;;;20.05;71.96;100960.06;5053109;28;19921;-81
2021/06/08 01:17:50;;;;;;;;;;;;;;;20.10;71.32;100961.69;5034331;28;20385;-80
2021/06/08 01:20:35;;;;;;;;;;;;;;;20.08;71.44;100951.00;5021846;28;19920;-78
2021/06/08 01:23:19;;;;;;;;;;;;;;;20.09;71.77;100952.63;5052289;28;19912;-83
2021/06/08 01:26:04;;;;;;;;;;;;;;;20.12;71.05;100949.09;5020198;28;19916;-81
2021/06/08 01:28:50;;;;;;;;;;;;;;;20.06;71.00;100947.84;5059714;28;19912;-82
2021/06/08 01:31:39;;;;;;;;;;;;;;;20.13;70.88;100939.66;5033017;28;19912;-82
2021/06/08 01:34:25;;;;;;;;;;;;;;;20.22;70.72;100950.41;5027704;28;19913;-81
2021/06/08 01:37:13;;;;;;;;;;;;;;;20.07;71.56;100943.91;5026166;28;20280;-80
2021/06/08 01:39:58;;;;;;;;;;;;;;;20.15;71.63;100947.56;5022418;28;20380;-79
2021/06/08 01:42:43;;;;;;;;;;;;;;;20.10;71.29;100945.94;5036032;28;19912;-83
2021/06/08 01:45:28;;;;;;;;;;;;;;;20.14;71.89;100952.28;5017907;28;19913;-80
2021/06/08 01:48:13;;;;;;;;;;;;;;;20.16;71.23;100946.41;5004975;28;19913;-82
2021/06/08 01:51:03;;;;;;;;;;;;;;;20.08;71.24;100948.25;5022675;28;19913;-81
2021/06/08 01:53:54;;;;;;;;;;;;;;;20.08;70.74;100938.00;5021911;28;19920;-80
2021/06/08 01:56:40;;;;;;;;;;;;;;;20.00;71.02;100943.81;5028656;28;20389;-81
2021/06/08 01:59:31;;;;;;;;;;;;;;;19.99;70.60;100950.50;5029246;28;19917;-82
2021/06/08 02:02:25;;;;;;;;;;;;;;;19.98;70.18;100949.69;5022732;28;19912;-80
2021/06/08 02:05:28;;;;;;;;;;;;;;;19.96;70.46;100952.03;5027654;28;19916;-79
2021/06/08 02:08:13;;;;;;;;;;;;;;;19.94;70.17;100951.63;5026434;28;19913;-78
2021/06/08 02:11:21;;;;;;;;;;;;;;;19.94;69.95;100954.38;5037944;28;19913;-79
2021/06/08 02:14:08;;;;;;;;;;;;;;;19.97;69.73;100953.63;5022678;28;20455;-81
2021/06/08 02:16:57;;;;;;;;;;;;;;;19.91;69.06;100955.09;5025641;28;19913;-79
2021/06/08 02:19:43;;;;;;;;;;;;;;;19.79;70.48;100951.78;5021833;28;19913;-83
2021/06/08 02:22:29;;;;;;;;;;;;;;;19.68;70.26;100951.63;5030496;28;19913;-80
2021/06/08 02:25:16;;;;;;;;;;;;;;;19.57;71.58;100945.94;5021153;28;19920;-82
2021/06/08 02:28:04;;;;;;;;;;;;;;;19.52;71.13;100949.00;5043621;28;19913;-82
2021/06/08 02:30:51;;;;;;;;;;;;;;;19.54;71.97;100948.66;5005789;28;19913;-80
2021/06/08 02:33:37;;;;;;;;;;;;;;;19.48;71.94;100950.13;5035802;28;20320;-81
2021/06/08 02:36:22;;;;;;;;;;;;;;;19.34;73.46;100958.94;5026180;28;19912;-78
2021/06/08 02:39:06;;;;;;;;;;;;;;;19.29;72.92;100952.94;5026588;28;19912;-80
2021/06/08 02:41:52;;;;;;;;;;;;;;;19.30;73.60;100954.53;5038197;28;19912;-80
2021/06/08 02:44:37;;;;;;;;;;;;;;;19.20;74.31;100953.94;5023705;28;19936;-80
2021/06/08 02:47:21;;;;;;;;;;;;;;;19.17;73.04;100959.41;5030125;28;19913;-82
2021/06/08 02:50:07;;;;;;;;;;;;;;;19.21;72.78;100957.50;5041176;28;19912;-83
2021/06/08 02:52:54;;;;;;;;;;;;;;;19.29;73.17;100961.19;5017737;28;19917;-83
2021/06/08 02:55:39;;;;;;;;;;;;;;;19.30;74.03;100957.28;5024595;28;20316;-83
2021/06/08 02:58:25;;;;;;;;;;;;;;;19.27;73.81;100953.28;5019146;28;19917;-82
2021/06/08 03:01:12;;;;;;;;;;;;;;;19.26;73.49;100957.19;5018223;28;19921;-81
2021/06/08 03:03:59;;;;;;;;;;;;;;;19.34;71.81;100958.13;5036416;28;20296;-79
2021/06/08 03:06:58;;;;;;;;;;;;;;;19.53;70.91;100958.09;5038620;28;19913;-79
2021/06/08 03:09:54;;;;;;;;;;;;;;;19.57;70.09;100956.97;5022160;28;19913;-80
2021/06/08 03:12:40;;;;;;;;;;;;;;;19.61;70.09;100963.34;5006456;28;19917;-82
2021/06/08 03:15:35;;;;;;;;;;;;;;;19.59;70.33;100962.13;5035540;28;19913;-82
2021/06/08 03:18:24;;;;;;;;;;;;;;;19.56;70.25;100963.66;5042464;28;20392;-81
2021/06/08 03:21:13;;;;;;;;;;;;;;;19.47;70.53;100960.34;5037036;28;19912;-82
2021/06/08 03:24:01;;;;;;;;;;;;;;;19.42;70.80;100973.63;5055053;28;19912;-81
2021/06/08 03:26:46;;;;;;;;;;;;;;;19.46;70.01;100967.03;5031371;28;19916;-82
2021/06/08 03:29:31;;;;;;;;;;;;;;;19.31;71.01;100970.69;5039098;28;19913;-85
2021/06/08 03:32:16;;;;;;;;;;;;;;;19.21;72.43;100971.28;5043409;28;19912;-84
2021/06/08 03:35:02;;;;;;;;;;;;;;;19.26;72.02;100970.19;5035586;28;19913;-85
2021/06/08 03:38:03;;;;;;;;;;;;;;;19.17;72.43;100964.94;5023554;28;20396;-84
2021/06/08 03:40:48;;;;;;;;;;;;;;;19.07;72.37;100971.03;5055038;28;19917;-83
2021/06/08 03:43:35;;;;;;;;;;;;;;;19.03;71.92;100968.22;5057257;28;20384;-84
2021/06/08 03:46:22;;;;;;;;;;;;;;;19.07;71.83;100971.03;5021027;28;19913;-85
2021/06/08 03:49:07;;;;;;;;;;;;;;;19.38;72.29;100975.53;5041450;28;20546;-78
2021/06/08 03:51:54;;;;;;;;;;;;;;;19.88;70.06;100977.94;5054891;28;19912;-82
2021/06/08 03:54:39;;;;;;;;;;;;;;;20.23;68.52;100982.38;5058558;28;19917;-82
2021/06/08 03:57:29;;;;;;;;;;;;;;;20.51;67.37;100982.00;5039351;28;19913;-80
2021/06/08 04:00:15;;;;;;;;;;;;;;;20.70;66.34;100985.38;5036853;28;19913;-78
2021/06/08 04:03:00;;;;;;;;;;;;;;;20.85;65.38;100991.88;5020305;28;19912;-78
2021/06/08 04:05:45;;;;;;;;;;;;;;;20.93;65.34;100983.28;5025213;28;20524;-78
2021/06/08 04:08:30;;;;;;;;;;;;;;;21.03;65.20;100992.09;5038722;28;19913;-79
2021/06/08 04:11:17;;;;;;;;;;;;;;;21.09;64.77;100985.00;5023718;28;19916;-83
2021/06/08 04:14:02;;;;;;;;;;;;;;;21.14;64.79;100985.50;5024110;28;20300;-77
2021/06/08 04:16:47;;;;;;;;;;;;;;;21.17;64.42;100987.53;5050296;28;19920;-78
2021/06/08 04:19:32;;;;;;;;;;;;;;;21.20;64.32;100983.97;5025169;28;19912;-78
2021/06/08 04:22:27;;;;;;;;;;;;;;;21.22;63.91;100984.41;5034983;28;19912;-78
2021/06/08 04:25:12;;;;;;;;;;;;;;;21.25;63.91;100993.91;5031841;28;19913;-78
2021/06/08 04:27:56;;;;;;;;;;;;;;;21.25;63.87;100991.13;5025606;28;19912;-77
2021/06/08 04:30:41;;;;;;;;;;;;;;;21.27;63.96;100986.81;5044449;28;20389;-77
2021/06/08 04:33:27;;;;;;;;;;;;;;;21.27;63.67;100989.59;5021864;28;19916;-75
2021/06/08 04:36:13;;;;;;;;;;;;;;;21.29;63.46;100990.00;5026472;28;19912;-77
2021/06/08 04:38:57;;;;;;;;;;;;;;;21.31;63.52;100993.19;5024838;28;20408;-78
2021/06/08 04:41:44;;;;;;;;;;;;;;;21.33;63.50;100985.28;5035700;28;19913;-77
2021/06/08 04:44:28;;;;;;;;;;;;;;;21.36;63.72;100988.47;5017644;28;19913;-79
2021/06/08 04:47:15;;;;;;;;;;;;;;;21.22;63.92;100994.66;5030324;28;20385;-79
2021/06/08 04:49:59;;;;;;;;;;;;;;;21.23;64.12;100985.22;5043882;28;19913;-79
2021/06/08 04:52:44;;;;;;;;;;;;;;;21.28;64.18;100993.16;5032377;28;19917;-76
2021/06/08 04:55:29;;;;;;;;;;;;;;;21.20;64.83;101000.56;5041301;28;19916;-79
2021/06/08 04:58:13;;;;;;;;;;;;;;;21.18;65.09;100996.63;5037258;28;19912;-78
2021/06/08 05:01:17;;;;;;;;;;;;;;;21.25;64.36;100994.69;5053011;28;20381;-77
2021/06/08 05:04:09;;;;;;;;;;;;;;;21.37;64.01;100995.59;5021224;28;20333;-79
2021/06/08 05:06:55;;;;;;;;;;;;;;;21.25;65.33;101004.97;5041698;28;19913;-78
2021/06/08 05:09:41;;;;;;;;;;;;;;;21.11;65.92;101007.56;5037529;28;19913;-79
2021/06/08 05:12:26;;;;;;;;;;;;;;;21.07;65.86;101002.00;5024587;28;19997;-79
2021/06/08 05:15:14;;;;;;;;;;;;;;;21.11;66.63;101005.59;5026903;28;19912;-75
2021/06/08 05:18:00;;;;;;;;;;;;;;;21.16;66.71;101002.53;5042244;28;19913;-77
2021/06/08 05:20:46;;;;;;;;;;;;;;;21.15;65.71;101003.69;5034049;28;20055;-76
2021/06/08 05:23:33;;;;;;;;;;;;;;;21.20;66.08;101005.31;5052811;28;19921;-77
2021/06/08 05:26:17;;;;;;;;;;;;;;;21.41;65.57;101007.50;5024637;28;20295;-78
2021/06/08 05:29:03;;;;;;;;;;;;;;;20.69;68.83;101011.44;5048344;28;19920;-78
2021/06/08 05:31:47;;;;;;;;;;;;;;;20.89;68.30;101012.06;5023795;28;19913;-78
2021/06/08 05:34:32;;;;;;;;;;;;;;;20.47;68.72;101004.84;5036073;28;19917;-78
2021/06/08 05:37:17;;;;;;;;;;;;;;;20.71;68.67;101003.56;5049485;28;19916;-79
2021/06/08 05:40:02;;;;;;;;;;;;;;;20.79;68.03;101015.50;5051479;28;20384;-79
2021/06/08 05:42:46;;;;;;;;;;;;;;;20.90;67.09;101010.88;5051172;28;19913;-77
2021/06/08 05:45:31;;;;;;;;;;;;;;;21.01;66.57;101013.78;5038170;28;19912;-77
2021/06/08 05:48:19;;;;;;;;;;;;;;;20.65;69.39;101013.38;5052521;28;19913;-77
2021/06/08 05:51:05;;;;;;;;;;;;;;;20.61;70.24;101014.50;5037988;28;19912;-78
2021/06/08 05:53:50;;;;;;;;;;;;;;;21.15;67.91;101011.19;5038179;28;20296;-76
2021/06/08 05:56:36;;;;;;;;;;;;;;;21.15;68.21;101017.50;5057413;28;19912;-77
2021/06/08 05:59:21;;;;;;;;;;;;;;;21.29;66.82;101017.66;5040292;28;19913;-77
2021/06/08 06:02:05;;;;;;;;;;;;;;;21.55;65.95;101022.25;5053264;28;19912;-76
2021/06/08 06:04:50;;;;;;;;;;;;;;;22.02;63.74;101027.00;5042599;28;19912;-76
2021/06/08 06:07:35;;;;;;;;;;;;;;;22.31;62.96;101029.94;5037344;28;19916;-76
2021/06/08 06:10:20;;;;;;;;;;;;;;;22.47;61.71;101019.34;5053041;28;19912;-76
2021/06/08 06:13:04;;;;;;;;;;;;;;;22.47;61.32;101017.38;5025979;28;19917;-78
2021/06/08 06:15:49;;;;;;;;;;;;;;;22.57;61.70;101018.59;5051806;28;20333;-75
2021/06/08 06:18:34;;;;;;;;;;;;;;;22.82;61.15;101027.84;5037494;28;20369;-79
2021/06/08 06:21:18;;;;;;;;;;;;;;;23.01;60.08;101026.72;5053380;28;19913;-78
2021/06/08 06:24:04;;;;;;;;;;;;;;;23.27;59.25;101033.91;5038626;28;19913;-78
2021/06/08 06:26:49;;;;;;;;;;;;;;;23.43;58.19;101026.81;5037835;28;20300;-78
2021/06/08 06:29:34;;;;;;;;;;;;;;;23.33;58.06;101026.78;5023428;28;19913;-75
2021/06/08 06:32:20;;;;;;;;;;;;;;;23.49;57.20;101029.22;5049244;28;20546;-76
2021/06/08 06:35:04;;;;;;;;;;;;;;;23.80;56.73;101029.22;5036325;28;19916;-76
2021/06/08 06:37:52;;;;;;;;;;;;;;;23.83;56.26;101035.97;5042376;28;19913;-76
2021/06/08 06:40:39;;;;;;;;;;;;;;;23.88;54.70;101036.34;5047617;28;19912;-76
2021/06/08 06:43:24;;;;;;;;;;;;;;;23.98;55.14;101033.97;5041319;28;19913;-77
2021/06/08 06:46:08;;;;;;;;;;;;;;;24.50;53.48;101044.22;5051317;28;19912;-78
2021/06/08 06:48:54;;;;;;;;;;;;;;;24.19;53.86;101039.53;5037314;28;19913;-79
2021/06/08 06:51:41;;;;;;;;;;;;;;;23.85;55.08;101042.72;5039233;28;19912;-76
2021/06/08 06:54:26;;;;;;;;;;;;;;;23.60;56.34;101036.38;5052196;28;19921;-76
2021/06/08 06:57:10;;;;;;;;;;;;;;;23.49;56.72;101029.22;5048268;28;19913;-78
2021/06/08 06:59:55;;;;;;;;;;;;;;;23.31;57.26;101035.53;5053758;28;19912;-75
2021/06/08 07:02:40;;;;;;;;;;;;;;;23.28;57.55;101036.28;5044974;28;19912;-76
2021/06/08 07:05:26;;;;;;;;;;;;;;;23.30;56.93;101039.47;5074114;28;19913;-76
2021/06/08 07:08:12;;;;;;;;;;;;;;;23.25;55.92;101039.06;5074966;28;19916;-75
2021/06/08 07:10:57;;;;;;;;;;;;;;;23.34;56.18;101034.72;5046604;28;19913;-77
2021/06/08 07:13:43;;;;;;;;;;;;;;;23.33;54.51;101027.59;5060265;28;19916;-77
2021/06/08 07:16:27;;;;;;;;;;;;;;;23.34;51.24;101026.41;5048991;28;19912;-78
2021/06/08 07:19:13;;;;;;;;;;;;;;;23.43;53.30;101037.09;5074763;28;19912;-77
2021/06/08 07:21:58;;;;;;;;;;;;;;;23.42;51.37;101030.75;5073417;28;19912;-76
2021/06/08 07:24:43;;;;;;;;;;;;;;;23.45;54.29;101034.78;5063006;28;19912;-78
2021/06/08 07:27:28;;;;;;;;;;;;;;;23.38;54.06;101034.72;5059569;28;19912;-76
2021/06/08 07:30:14;;;;;;;;;;;;;;;23.39;54.75;101033.53;5065363;28;20331;-78
2021/06/08 07:33:07;;;;;;;;;;;;;;;23.49;51.80;101032.78;4486023;28;16617518;-77
2021/06/08 07:36:00;;;;;;;;;;;;;;;23.50;54.15;101033.59;5051359;28;19916;-75
2021/06/08 07:38:56;;;;;;;;;;;;;;;23.42;54.04;101030.75;5050961;28;19912;-75
2021/06/08 07:41:44;;;;;;;;;;;;;;;23.56;53.36;101035.59;5060698;28;19912;-77
2021/06/08 07:44:31;;;;;;;;;;;;;;;23.61;53.35;101031.63;5060534;28;19912;-78
2021/06/08 07:47:17;;;;;;;;;;;;;;;23.61;53.45;101024.09;5065413;28;19912;-76
2021/06/08 07:50:07;;;;;;;;;;;;;;;23.82;52.35;101026.84;5075389;28;19912;-77
2021/06/08 07:52:52;;;;;;;;;;;;;;;23.90;50.69;101026.84;5073686;28;20377;-79
2021/06/08 07:55:40;;;;;;;;;;;;;;;23.93;52.36;101024.06;5075274;28;19916;-78
2021/06/08 07:58:25;;;;;;;;;;;;;;;23.91;52.46;101028.44;5062122;28;19912;-75
2021/06/08 08:01:11;;;;;;;;;;;;;;;24.10;50.73;101025.22;5045273;28;19913;-75
2021/06/08 08:03:56;;;;;;;;;;;;;;;24.10;52.01;101037.13;5046098;28;19916;-74
2021/06/08 08:06:42;;;;;;;;;;;;;;;24.09;51.70;101032.75;5074646;28;19913;-76
2021/06/08 08:09:27;;;;;;;;;;;;;;;24.11;51.82;101033.16;5059958;28;20284;-76
2021/06/08 08:12:13;;;;;;;;;;;;;;;24.13;51.38;101032.75;5074515;28;19913;-73
2021/06/08 08:14:57;;;;;;;;;;;;;;;24.23;50.65;101031.97;5074380;28;19912;-76
2021/06/08 08:17:42;;;;;;;;;;;;;;;24.18;51.64;101032.38;5074454;28;19917;-75
2021/06/08 08:20:45;;;;;;;;;;;;;;;24.24;50.81;101028.81;5049960;28;19912;-75
2021/06/08 08:23:30;;;;;;;;;;;;;;;24.21;51.11;101026.84;5059425;28;19913;-75
2021/06/08 08:26:17;;;;;;;;;;;;;;;24.23;51.29;101029.19;5045299;28;19916;-77
2021/06/08 08:29:03;;;;;;;;;;;;;;;24.43;49.96;101026.78;5074329;28;19913;-76
2021/06/08 08:31:49;;;;;;;;;;;;;;;24.51;49.15;101022.78;5074125;28;19916;-77
2021/06/08 08:34:33;;;;;;;;;;;;;;;24.70;48.31;101025.88;5058640;28;20296;-78
2021/06/08 08:37:18;;;;;;;;;;;;;;;24.42;50.47;101030.75;5063237;28;19916;-77
2021/06/08 08:40:03;;;;;;;;;;;;;;;24.43;48.84;101026.78;5061190;28;19913;-75
2021/06/08 08:42:48;;;;;;;;;;;;;;;24.46;49.44;101023.97;5059085;28;19912;-75
2021/06/08 08:45:33;;;;;;;;;;;;;;;24.20;50.92;101018.88;5058530;28;19912;-75
2021/06/08 08:48:22;;;;;;;;;;;;;;;23.94;50.77;101017.31;5047363;28;19913;-76
2021/06/08 08:51:06;;;;;;;;;;;;;;;23.95;51.45;101018.91;5059257;28;20308;-75
2021/06/08 08:53:52;;;;;;;;;;;;;;;23.97;51.52;101022.09;5073281;28;19912;-74
2021/06/08 08:56:38;;;;;;;;;;;;;;;24.22;50.18;101022.88;5073661;28;19920;-74
2021/06/08 08:59:23;;;;;;;;;;;;;;;24.31;50.28;101014.09;5059582;28;20372;-77
2021/06/08 09:02:08;;;;;;;;;;;;;;;24.52;48.62;101016.03;5048955;28;19912;-76
2021/06/08 09:04:54;;;;;;;;;;;;;;;24.61;48.10;101014.38;5072488;28;19912;-77
2021/06/08 09:07:39;;;;;;;;;;;;;;;24.77;48.31;101016.72;5058374;28;19912;-75
2021/06/08 09:10:23;;;;;;;;;;;;;;;24.91;48.15;101013.09;5058555;28;19912;-75
2021/06/08 09:13:08;;;;;;;;;;;;;;;25.04;47.60;101006.63;5060738;28;19912;-77
2021/06/08 09:15:53;;;;;;;;;;;;;;;25.45;45.72;101015.13;5073123;28;19917;-76
2021/06/08 09:18:38;;;;;;;;;;;;;;;25.53;47.40;101015.88;5050726;28;19912;-79
2021/06/08 09:21:25;;;;;;;;;;;;;;;25.56;45.64;101015.06;5063378;28;19942;-78
2021/06/08 09:24:39;;;;;;;;;;;;;;;25.41;46.34;101008.78;5074673;28;20295;-79
2021/06/08 09:27:27;;;;;;;;;;;;;;;25.16;47.52;101002.59;5045283;28;20296;-79
2021/06/08 09:30:15;;;;;;;;;;;;;;;24.83;48.07;101001.19;5061436;28;19912;-78
2021/06/08 09:33:08;;;;;;;;;;;;;;;25.10;46.55;101004.22;5058913;28;19920;-78
2021/06/08 09:35:57;;;;;;;;;;;;;;;25.25;45.16;101005.72;5058825;28;19912;-79
2021/06/08 09:38:44;;;;;;;;;;;;;;;25.60;46.25;101009.47;5072771;28;19916;-78
2021/06/08 09:41:41;;;;;;;;;;;;;;;25.51;45.50;101010.69;5064001;28;20102;-78
2021/06/08 09:44:25;;;;;;;;;;;;;;;25.31;46.14;101009.66;5061986;28;19912;-79
2021/06/08 09:47:10;;;;;;;;;;;;;;;25.31;46.39;101009.66;5073409;28;19916;-78
2021/06/08 09:49:55;;;;;;;;;;;;;;;25.31;45.75;101003.28;5017239;28;19913;-77
2021/06/08 09:52:39;;;;;;;;;;;;;;;25.18;46.45;101010.56;5044359;28;20320;-77
2021/06/08 09:55:24;;;;;;;;;;;;;;;25.24;46.49;101003.34;5025460;28;19913;-81
2021/06/08 09:58:11;;;;;;;;;;;;;;;25.27;46.10;101003.31;5050881;28;19917;-81
2021/06/08 10:01:06;;;;;;;;;;;;;;;25.05;46.99;100988.75;5047452;28;19912;-80
2021/06/08 10:03:51;;;;;;;;;;;;;;;25.02;46.79;100997.13;5043278;28;19913;-78
2021/06/08 10:06:37;;;;;;;;;;;;;;;25.14;47.00;100993.88;5027148;28;19912;-77
2021/06/08 10:09:22;;;;;;;;;;;;;;;25.20;46.93;100997.00;5036830;28;19913;-79
2021/06/08 10:12:07;;;;;;;;;;;;;;;25.07;46.60;100991.13;5044327;28;19912;-78
2021/06/08 10:14:51;;;;;;;;;;;;;;;24.93;47.58;100983.66;5030577;28;20320;-79
2021/06/08 10:17:37;;;;;;;;;;;;;;;24.80;47.15;100987.28;5029361;28;19917;-78
2021/06/08 10:20:24;;;;;;;;;;;;;;;25.12;45.70;100985.13;5016923;28;20448;-79
2021/06/08 10:23:22;;;;;;;;;;;;;;;25.19;46.28;100985.09;5019251;28;19920;-77
2021/06/08 10:26:11;;;;;;;;;;;;;;;25.34;45.66;100983.00;5026560;28;19917;-80
2021/06/08 10:28:57;;;;;;;;;;;;;;;25.00;47.05;100971.69;5018089;28;19920;-80
2021/06/08 10:31:42;;;;;;;;;;;;;;;24.87;47.39;100979.72;5048179;28;20296;-80
2021/06/08 10:34:29;;;;;;;;;;;;;;;25.00;47.06;100977.25;5023402;28;19916;-78
2021/06/08 10:37:17;;;;;;;;;;;;;;;24.99;46.91;100986.81;5030257;28;19932;-80
2021/06/08 10:40:02;;;;;;;;;;;;;;;25.06;46.55;100981.19;5018469;28;20318;-80
2021/06/08 10:42:46;;;;;;;;;;;;;;;24.92;46.72;100986.84;5019258;28;19920;-80
2021/06/08 10:45:33;;;;;;;;;;;;;;;24.79;47.15;100969.78;5019687;28;19913;-81
2021/06/08 10:48:20;;;;;;;;;;;;;;;24.80;47.75;100970.59;5020346;28;20301;-79
2021/06/08 10:51:10;;;;;;;;;;;;;;;24.66;48.14;100969.47;5026028;28;19913;-80
2021/06/08 10:53:56;;;;;;;;;;;;;;;24.31;49.15;100975.19;5032240;28;19913;-78
2021/06/08 10:56:54;;;;;;;;;;;;;;;24.01;50.23;100964.53;5031184;28;19920;-79
2021/06/08 10:59:41;;;;;;;;;;;;;;;23.92;50.64;100957.78;5026096;28;20305;-79
2021/06/08 11:02:41;;;;;;;;;;;;;;;24.10;49.15;100955.75;5034015;28;19913;-81
2021/06/08 11:05:46;;;;;;;;;;;;;;;24.57;47.58;100959.97;5022269;28;20438;-81
2021/06/08 11:09:04;;;;;;;;;;;;;;;24.83;46.88;100948.31;5051274;28;19916;-81
2021/06/08 11:11:49;;;;;;;;;;;;;;;24.82;47.07;100940.38;5006471;28;20304;-80
2021/06/08 11:17:38;;;;;;;;;;;;;;;24.52;48.42;100935.38;5035247;28;19916;-80
2021/06/08 11:20:27;;;;;;;;;;;;;;;24.50;48.65;100932.19;5017712;28;21560;-81
2021/06/08 11:23:30;;;;;;;;;;;;;;;24.58;47.94;100937.31;5019234;28;19913;-79
2021/06/08 11:26:17;;;;;;;;;;;;;;;24.67;47.58;100932.13;5043385;28;19912;-79
2021/06/08 11:29:01;;;;;;;;;;;;;;;24.60;48.27;100926.59;5019011;28;19913;-78
2021/06/08 11:31:50;;;;;;;;;;;;;;;24.56;48.57;100925.03;5031217;28;20293;-80
2021/06/08 11:34:53;;;;;;;;;;;;;;;24.59;48.36;100927.78;5043666;28;19913;-79
2021/06/08 11:37:54;;;;;;;;;;;;;;;24.79;46.19;100922.50;5034136;28;20317;-81
2021/06/08 11:40:39;;;;;;;;;;;;;;;25.40;41.72;100917.28;5028746;28;19917;-79
2021/06/08 11:43:24;;;;;;;;;;;;;;;25.62;42.45;100912.34;5035093;28;19913;-79
2021/06/08 11:46:13;;;;;;;;;;;;;;;24.92;44.91;100908.94;5028942;28;19913;-80
2021/06/08 11:49:06;;;;;;;;;;;;;;;24.65;46.39;100905.91;5029155;28;20557;-80
2021/06/08 11:52:13;;;;;;;;;;;;;;;24.67;46.48;100904.31;5017930;28;19913;-80
2021/06/08 11:54:58;;;;;;;;;;;;;;;24.80;46.16;100909.38;5021975;28;19920;-80
2021/06/08 11:57:42;;;;;;;;;;;;;;;24.85;46.13;100903.38;5024849;28;19917;-79
2021/06/08 12:00:53;;;;;;;;;;;;;;;25.06;42.58;100897.69;5033820;28;19920;-80
2021/06/08 12:03:38;;;;;;;;;;;;;;;25.51;42.31;100896.50;5048392;28;19920;-80
2021/06/08 12:06:42;;;;;;;;;;;;;;;25.94;40.48;100887.75;5030867;28;19913;-80
2021/06/08 12:09:28;;;;;;;;;;;;;;;25.84;40.85;100883.06;5034503;28;19917;-79
2021/06/08 12:12:14;;;;;;;;;;;;;;;25.70;41.89;100888.81;5041854;28;19912;-80
2021/06/08 12:14:59;;;;;;;;;;;;;;;25.89;40.57;100891.78;5024229;28;19921;-81
2021/06/08 12:17:43;;;;;;;;;;;;;;;25.66;41.67;100886.03;5023776;28;19921;-81
2021/06/08 12:20:28;;;;;;;;;;;;;;;26.13;35.06;100884.31;5024805;28;19913;-81
2021/06/08 12:23:29;;;;;;;;;;;;;;;26.22;38.19;100884.63;5041074;28;19913;-84
2021/06/08 12:26:18;;;;;;;;;;;;;;;25.66;39.24;100888.03;5025546;28;19913;-80
2021/06/08 12:29:09;;;;;;;;;;;;;;;25.61;37.72;100883.69;5040692;28;20296;-80
2021/06/08 12:31:56;;;;;;;;;;;;;;;25.54;40.77;100887.34;5019653;28;19920;-81
2021/06/08 12:34:40;;;;;;;;;;;;;;;26.12;33.94;100874.38;5036607;28;20384;-81
2021/06/08 12:37:26;;;;;;;;;;;;;;;26.34;37.10;100875.72;5036622;28;19917;-80
2021/06/08 12:40:15;;;;;;;;;;;;;;;26.21;36.76;100866.28;5036778;28;19912;-82
2021/06/08 12:43:00;;;;;;;;;;;;;;;25.38;39.50;100853.69;5043432;28;19913;-81
2021/06/08 12:45:53;;;;;;;;;;;;;;;26.36;36.78;100864.91;5037764;28;19912;-81
2021/06/08 12:48:38;;;;;;;;;;;;;;;26.26;37.47;100871.41;5031761;28;19917;-81
2021/06/08 12:51:22;;;;;;;;;;;;;;;25.63;40.86;100875.75;5038214;28;19913;-82
2021/06/08 12:54:28;;;;;;;;;;;;;;;25.09;41.80;100869.84;5045783;28;19916;-81
2021/06/08 12:57:21;;;;;;;;;;;;;;;24.52;43.88;100874.22;5041055;28;19916;-79
2021/06/08 13:00:10;;;;;;;;;;;;;;;24.13;45.63;100866.00;5039334;28;20304;-80
2021/06/08 13:02:55;;;;;;;;;;;;;;;24.13;46.38;100868.78;5033448;28;19913;-80
2021/06/08 13:05:41;;;;;;;;;;;;;;;24.12;48.23;100861.69;5038974;28;19912;-81
2021/06/08 13:08:27;;;;;;;;;;;;;;;24.17;49.46;100864.06;5020785;28;20384;-80
2021/06/08 13:11:30;;;;;;;;;;;;;;;24.24;48.44;100855.69;5034373;28;19912;-81
2021/06/08 13:14:18;;;;;;;;;;;;;;;24.52;48.29;100863.88;5016602;28;19917;-78
2021/06/08 13:17:22;;;;;;;;;;;;;;;24.18;49.06;100855.31;5041512;28;19924;-79
2021/06/08 13:20:24;;;;;;;;;;;;;;;24.13;49.77;100869.59;5020642;28;19917;-80
2021/06/08 13:23:22;;;;;;;;;;;;;;;23.96;50.41;100858.56;5032309;28;19913;-78
2021/06/08 13:26:08;;;;;;;;;;;;;;;23.97;51.17;100860.16;5033310;28;19916;-80
2021/06/08 13:28:54;;;;;;;;;;;;;;;23.81;51.97;100855.03;5042042;28;19913;-81
2021/06/08 13:31:40;;;;;;;;;;;;;;;23.64;53.26;100851.13;5024637;28;19921;-78
2021/06/08 13:34:27;;;;;;;;;;;;;;;23.71;53.11;100845.56;5028636;28;20304;-81
2021/06/08 13:37:12;;;;;;;;;;;;;;;23.74;53.16;100841.97;5027747;28;20381;-79
2021/06/08 13:39:56;;;;;;;;;;;;;;;23.83;52.78;100844.31;5026761;28;20293;-79
2021/06/08 13:42:41;;;;;;;;;;;;;;;23.80;52.72;100850.69;5026457;28;19917;-82
2021/06/08 13:45:30;;;;;;;;;;;;;;;23.86;52.55;100854.63;5021237;28;19913;-79
2021/06/08 13:48:16;;;;;;;;;;;;;;;23.82;53.12;100849.06;5018862;28;19912;-78
2021/06/08 13:51:11;;;;;;;;;;;;;;;23.69;53.34;100850.72;5009180;28;19939;-78
2021/06/08 13:54:02;;;;;;;;;;;;;;;23.65;54.22;100847.16;5032185;28;19913;-78
2021/06/08 13:57:27;;;;;;;;;;;;;;;23.62;54.40;100849.94;5017975;28;19916;-80
2021/06/08 14:00:21;;;;;;;;;;;;;;;23.62;54.16;100847.94;5002827;28;20373;-79
2021/06/08 14:03:19;;;;;;;;;;;;;;;23.66;53.79;100850.72;5020262;28;19913;-79
2021/06/08 14:06:30;;;;;;;;;;;;;;;23.65;54.12;100838.03;5017766;28;19913;-78
2021/06/08 14:09:16;;;;;;;;;;;;;;;23.60;54.32;100832.88;5021247;28;19917;-78
2021/06/08 14:12:04;;;;;;;;;;;;;;;23.57;54.41;100831.69;5010477;28;20523;-78
2021/06/08 14:14:50;;;;;;;;;;;;;;;23.61;54.32;100835.28;5050977;28;19913;-79
2021/06/08 14:17:35;;;;;;;;;;;;;;;23.55;54.50;100836.88;5047678;28;19917;-78
2021/06/08 14:20:20;;;;;;;;;;;;;;;23.58;54.39;100832.47;5025397;28;19912;-79
2021/06/08 14:23:05;;;;;;;;;;;;;;;23.62;54.03;100833.28;5037366;28;19912;-78